sensor_id;sensor_type;location;lat;lon;timestamp;temperature;humidity
26721;HTU21D;15950;51.112;6.966;2023-04-19T00:00:42;11.62;70.21
26721;HTU21D;15950;51.112;6.966;2023-04-19T00:03:42;11.59;70.00
26721;HTU21D;15950;51.112;6.966;2023-04-19T00:06:42;11.55;70.14
26721;HTU21D;15950;51.112;6.966;2023-04-19T00:09:42;11.61;70.30
26721;HTU21D;15950;51.112;6.966;2023-04-19T00:12:42;11.54;70.30
26721;HTU21D;15950;51.112;6.966;2023-04-19T00:15:42;11.57;70.35
26721;HTU21D;15950;51.112;6.966;2023-04-19T00:18:42;11.60;70.17
26721;HTU21D;15950;51.112;6.966;2023-04-19T00:21:42;11.64;70.10
26721;HTU21D;15950;51.112;6.966;2023-04-19T00:24:42;11.61;70.25
26721;HTU21D;15950;51.112;6.966;2023-04-19T00:27:42;11.51;70.46
26721;HTU21D;15950;51.112;6.966;2023-04-19T00:30:42;11.48;70.81
26721;HTU21D;15950;51.112;6.966;2023-04-19T00:33:42;11.52;70.50
26721;HTU21D;15950;51.112;6.966;2023-04-19T00:36:42;11.66;70.23
26721;HTU21D;15950;51.112;6.966;2023-04-19T00:39:42;11.70;70.37
26721;HTU21D;15950;51.112;6.966;2023-04-19T00:42:42;11.68;70.21
26721;HTU21D;15950;51.112;6.966;2023-04-19T00:45:42;11.62;70.42
26721;HTU21D;15950;51.112;6.966;2023-04-19T00:48:42;11.59;70.46
26721;HTU21D;15950;51.112;6.966;2023-04-19T00:51:42;11.50;70.62
26721;HTU21D;15950;51.112;6.966;2023-04-19T00:54:42;11.56;70.33
26721;HTU21D;15950;51.112;6.966;2023-04-19T00:57:42;11.66;70.38
26721;HTU21D;15950;51.112;6.966;2023-04-19T01:00:43;11.70;70.36
26721;HTU21D;15950;51.112;6.966;2023-04-19T01:03:42;11.69;70.17
26721;HTU21D;15950;51.112;6.966;2023-04-19T01:06:42;11.60;70.78
26721;HTU21D;15950;51.112;6.966;2023-04-19T01:09:42;11.43;71.19
26721;HTU21D;15950;51.112;6.966;2023-04-19T01:12:42;11.47;71.29
26721;HTU21D;15950;51.112;6.966;2023-04-19T01:15:43;11.34;71.65
26721;HTU21D;15950;51.112;6.966;2023-04-19T01:18:42;11.42;71.69
26721;HTU21D;15950;51.112;6.966;2023-04-19T01:21:42;11.36;71.76
26721;HTU21D;15950;51.112;6.966;2023-04-19T01:24:42;11.31;72.13
26721;HTU21D;15950;51.112;6.966;2023-04-19T01:27:42;11.36;71.93
26721;HTU21D;15950;51.112;6.966;2023-04-19T01:30:42;11.44;72.03
26721;HTU21D;15950;51.112;6.966;2023-04-19T01:33:42;11.30;72.55
26721;HTU21D;15950;51.112;6.966;2023-04-19T01:36:42;11.27;72.50
26721;HTU21D;15950;51.112;6.966;2023-04-19T01:39:42;11.31;72.52
26721;HTU21D;15950;51.112;6.966;2023-04-19T01:42:42;11.32;72.70
26721;HTU21D;15950;51.112;6.966;2023-04-19T01:45:42;11.19;72.90
26721;HTU21D;15950;51.112;6.966;2023-04-19T01:48:42;11.33;72.77
26721;HTU21D;15950;51.112;6.966;2023-04-19T01:51:42;11.22;73.00
26721;HTU21D;15950;51.112;6.966;2023-04-19T01:54:42;11.39;73.00
26721;HTU21D;15950;51.112;6.966;2023-04-19T01:57:42;11.27;73.17
26721;HTU21D;15950;51.112;6.966;2023-04-19T02:00:42;11.34;73.06
26721;HTU21D;15950;51.112;6.966;2023-04-19T02:03:42;11.29;73.23
26721;HTU21D;15950;51.112;6.966;2023-04-19T02:06:42;11.37;73.41
26721;HTU21D;15950;51.112;6.966;2023-04-19T02:09:42;11.29;73.36
26721;HTU21D;15950;51.112;6.966;2023-04-19T02:12:42;11.40;73.19
26721;HTU21D;15950;51.112;6.966;2023-04-19T02:15:42;11.29;73.66
26721;HTU21D;15950;51.112;6.966;2023-04-19T02:18:42;11.21;74.04
26721;HTU21D;15950;51.112;6.966;2023-04-19T02:21:42;11.22;74.17
26721;HTU21D;15950;51.112;6.966;2023-04-19T02:24:42;11.40;73.88
26721;HTU21D;15950;51.112;6.966;2023-04-19T02:27:42;11.28;73.96
26721;HTU21D;15950;51.112;6.966;2023-04-19T02:30:42;11.16;74.81
26721;HTU21D;15950;51.112;6.966;2023-04-19T02:33:42;11.22;74.89
26721;HTU21D;15950;51.112;6.966;2023-04-19T02:36:42;11.15;75.34
26721;HTU21D;15950;51.112;6.966;2023-04-19T02:39:42;11.22;75.28
26721;HTU21D;15950;51.112;6.966;2023-04-19T02:42:42;11.24;75.11
26721;HTU21D;15950;51.112;6.966;2023-04-19T02:45:42;11.11;75.73
26721;HTU21D;15950;51.112;6.966;2023-04-19T02:48:42;11.11;75.92
26721;HTU21D;15950;51.112;6.966;2023-04-19T02:51:42;11.12;76.26
26721;HTU21D;15950;51.112;6.966;2023-04-19T02:54:42;11.07;76.63
26721;HTU21D;15950;51.112;6.966;2023-04-19T02:57:42;11.10;76.73
26721;HTU21D;15950;51.112;6.966;2023-04-19T03:00:42;10.99;76.98
26721;HTU21D;15950;51.112;6.966;2023-04-19T03:03:42;11.02;77.25
26721;HTU21D;15950;51.112;6.966;2023-04-19T03:06:42;11.01;77.36
26721;HTU21D;15950;51.112;6.966;2023-04-19T03:09:42;11.01;77.56
26721;HTU21D;15950;51.112;6.966;2023-04-19T03:12:42;11.04;77.59
26721;HTU21D;15950;51.112;6.966;2023-04-19T03:15:42;10.90;77.73
26721;HTU21D;15950;51.112;6.966;2023-04-19T03:18:42;11.04;77.53
26721;HTU21D;15950;51.112;6.966;2023-04-19T03:21:42;11.00;77.52
26721;HTU21D;15950;51.112;6.966;2023-04-19T03:24:42;11.11;77.44
26721;HTU21D;15950;51.112;6.966;2023-04-19T03:27:42;11.13;77.25
26721;HTU21D;15950;51.112;6.966;2023-04-19T03:30:42;11.01;77.69
26721;HTU21D;15950;51.112;6.966;2023-04-19T03:33:42;11.01;77.63
26721;HTU21D;15950;51.112;6.966;2023-04-19T03:36:42;10.98;77.56
26721;HTU21D;15950;51.112;6.966;2023-04-19T03:39:42;10.93;77.65
26721;HTU21D;15950;51.112;6.966;2023-04-19T03:42:42;11.08;77.38
26721;HTU21D;15950;51.112;6.966;2023-04-19T03:45:42;11.09;77.18
26721;HTU21D;15950;51.112;6.966;2023-04-19T03:48:42;11.09;77.02
26721;HTU21D;15950;51.112;6.966;2023-04-19T03:51:42;10.98;77.17
26721;HTU21D;15950;51.112;6.966;2023-04-19T03:54:42;11.06;76.99
26721;HTU21D;15950;51.112;6.966;2023-04-19T03:57:42;11.10;77.04
26721;HTU21D;15950;51.112;6.966;2023-04-19T04:00:42;11.01;77.19
26721;HTU21D;15950;51.112;6.966;2023-04-19T04:03:42;10.84;77.33
26721;HTU21D;15950;51.112;6.966;2023-04-19T04:06:42;11.00;77.23
26721;HTU21D;15950;51.112;6.966;2023-04-19T04:09:42;11.06;76.82
26721;HTU21D;15950;51.112;6.966;2023-04-19T04:12:42;10.92;76.75
26721;HTU21D;15950;51.112;6.966;2023-04-19T04:15:42;11.18;76.21
26721;HTU21D;15950;51.112;6.966;2023-04-19T04:18:42;11.27;75.67
26721;HTU21D;15950;51.112;6.966;2023-04-19T04:21:42;11.19;75.34
26721;HTU21D;15950;51.112;6.966;2023-04-19T04:24:42;11.32;75.04
26721;HTU21D;15950;51.112;6.966;2023-04-19T04:27:42;11.35;74.99
26721;HTU21D;15950;51.112;6.966;2023-04-19T04:30:42;11.33;74.53
26721;HTU21D;15950;51.112;6.966;2023-04-19T04:33:42;11.41;74.31
26721;HTU21D;15950;51.112;6.966;2023-04-19T04:36:42;11.23;74.54
26721;HTU21D;15950;51.112;6.966;2023-04-19T04:39:42;11.13;74.64
26721;HTU21D;15950;51.112;6.966;2023-04-19T04:42:42;10.97;74.85
26721;HTU21D;15950;51.112;6.966;2023-04-19T04:45:42;11.00;74.54
26721;HTU21D;15950;51.112;6.966;2023-04-19T04:48:42;11.03;74.49
26721;HTU21D;15950;51.112;6.966;2023-04-19T04:51:42;10.98;74.67
26721;HTU21D;15950;51.112;6.966;2023-04-19T04:54:42;10.90;74.73
26721;HTU21D;15950;51.112;6.966;2023-04-19T04:57:42;10.91;74.41
26721;HTU21D;15950;51.112;6.966;2023-04-19T05:00:42;11.01;74.06
26721;HTU21D;15950;51.112;6.966;2023-04-19T05:03:42;10.93;73.99
26721;HTU21D;15950;51.112;6.966;2023-04-19T05:06:42;10.80;73.88
26721;HTU21D;15950;51.112;6.966;2023-04-19T05:09:42;10.86;73.61
26721;HTU21D;15950;51.112;6.966;2023-04-19T05:12:42;10.81;73.32
26721;HTU21D;15950;51.112;6.966;2023-04-19T05:15:42;11.02;72.97
26721;HTU21D;15950;51.112;6.966;2023-04-19T05:18:42;10.92;72.67
26721;HTU21D;15950;51.112;6.966;2023-04-19T05:21:44;10.94;72.23
26721;HTU21D;15950;51.112;6.966;2023-04-19T05:24:42;10.81;72.00
26721;HTU21D;15950;51.112;6.966;2023-04-19T05:27:42;10.83;71.94
26721;HTU21D;15950;51.112;6.966;2023-04-19T05:30:42;10.80;71.49
26721;HTU21D;15950;51.112;6.966;2023-04-19T05:33:42;10.68;71.54
26721;HTU21D;15950;51.112;6.966;2023-04-19T05:36:42;10.75;71.64
26721;HTU21D;15950;51.112;6.966;2023-04-19T05:39:42;10.71;71.28
26721;HTU21D;15950;51.112;6.966;2023-04-19T05:42:42;10.71;71.27
26721;HTU21D;15950;51.112;6.966;2023-04-19T05:45:42;10.74;71.14
26721;HTU21D;15950;51.112;6.966;2023-04-19T05:48:42;10.63;70.81
26721;HTU21D;15950;51.112;6.966;2023-04-19T05:51:42;10.51;70.72
26721;HTU21D;15950;51.112;6.966;2023-04-19T05:54:42;10.55;70.27
26721;HTU21D;15950;51.112;6.966;2023-04-19T05:57:42;10.64;70.07
26721;HTU21D;15950;51.112;6.966;2023-04-19T06:00:42;10.77;69.59
26721;HTU21D;15950;51.112;6.966;2023-04-19T06:03:42;10.69;69.52
26721;HTU21D;15950;51.112;6.966;2023-04-19T06:06:42;10.68;69.23
26721;HTU21D;15950;51.112;6.966;2023-04-19T06:09:42;10.71;69.10
26721;HTU21D;15950;51.112;6.966;2023-04-19T06:12:42;10.58;69.08
26721;HTU21D;15950;51.112;6.966;2023-04-19T06:15:42;10.68;68.87
26721;HTU21D;15950;51.112;6.966;2023-04-19T06:18:42;10.74;68.53
26721;HTU21D;15950;51.112;6.966;2023-04-19T06:21:42;10.89;68.23
26721;HTU21D;15950;51.112;6.966;2023-04-19T06:24:44;11.16;67.45
26721;HTU21D;15950;51.112;6.966;2023-04-19T06:27:42;11.48;66.61
26721;HTU21D;15950;51.112;6.966;2023-04-19T06:30:42;11.43;65.37
26721;HTU21D;15950;51.112;6.966;2023-04-19T06:33:42;11.69;64.85
26721;HTU21D;15950;51.112;6.966;2023-04-19T06:36:42;11.92;63.67
26721;HTU21D;15950;51.112;6.966;2023-04-19T06:39:42;11.78;62.76
26721;HTU21D;15950;51.112;6.966;2023-04-19T06:42:42;11.98;62.15
26721;HTU21D;15950;51.112;6.966;2023-04-19T06:45:42;11.63;61.59
26721;HTU21D;15950;51.112;6.966;2023-04-19T06:48:42;11.38;62.70
26721;HTU21D;15950;51.112;6.966;2023-04-19T06:51:42;11.18;63.11
26721;HTU21D;15950;51.112;6.966;2023-04-19T06:54:45;11.12;63.29
26721;HTU21D;15950;51.112;6.966;2023-04-19T06:57:42;11.02;63.24
26721;HTU21D;15950;51.112;6.966;2023-04-19T07:00:42;10.99;63.47
26721;HTU21D;15950;51.112;6.966;2023-04-19T07:03:44;10.90;63.48
26721;HTU21D;15950;51.112;6.966;2023-04-19T07:06:42;11.09;63.54
26721;HTU21D;15950;51.112;6.966;2023-04-19T07:09:42;10.94;63.62
26721;HTU21D;15950;51.112;6.966;2023-04-19T07:12:42;10.94;63.53
26721;HTU21D;15950;51.112;6.966;2023-04-19T07:15:42;11.13;63.44
26721;HTU21D;15950;51.112;6.966;2023-04-19T07:18:42;11.19;63.34
26721;HTU21D;15950;51.112;6.966;2023-04-19T07:21:42;11.15;62.73
26721;HTU21D;15950;51.112;6.966;2023-04-19T07:24:42;11.25;62.92
26721;HTU21D;15950;51.112;6.966;2023-04-19T07:27:42;11.38;62.17
26721;HTU21D;15950;51.112;6.966;2023-04-19T07:30:42;11.53;61.51
26721;HTU21D;15950;51.112;6.966;2023-04-19T07:33:42;11.65;61.44
26721;HTU21D;15950;51.112;6.966;2023-04-19T07:36:42;11.71;61.12
26721;HTU21D;15950;51.112;6.966;2023-04-19T07:39:42;11.78;60.65
26721;HTU21D;15950;51.112;6.966;2023-04-19T07:42:42;11.73;59.51
26721;HTU21D;15950;51.112;6.966;2023-04-19T07:45:42;12.16;59.48
26721;HTU21D;15950;51.112;6.966;2023-04-19T07:48:42;12.27;58.93
26721;HTU21D;15950;51.112;6.966;2023-04-19T07:51:42;12.55;56.97
26721;HTU21D;15950;51.112;6.966;2023-04-19T07:54:42;12.48;55.95
26721;HTU21D;15950;51.112;6.966;2023-04-19T07:57:42;12.81;55.94
26721;HTU21D;15950;51.112;6.966;2023-04-19T08:00:42;13.08;53.96
26721;HTU21D;15950;51.112;6.966;2023-04-19T08:03:42;13.27;53.46
26721;HTU21D;15950;51.112;6.966;2023-04-19T08:06:42;13.10;52.69
26721;HTU21D;15950;51.112;6.966;2023-04-19T08:09:42;13.40;52.43
26721;HTU21D;15950;51.112;6.966;2023-04-19T08:12:42;13.32;51.43
26721;HTU21D;15950;51.112;6.966;2023-04-19T08:15:42;13.32;51.27
26721;HTU21D;15950;51.112;6.966;2023-04-19T08:18:42;13.59;49.75
26721;HTU21D;15950;51.112;6.966;2023-04-19T08:21:42;13.78;49.53
26721;HTU21D;15950;51.112;6.966;2023-04-19T08:24:42;13.69;49.33
26721;HTU21D;15950;51.112;6.966;2023-04-19T08:27:42;13.68;49.25
26721;HTU21D;15950;51.112;6.966;2023-04-19T08:30:42;13.75;49.86
26721;HTU21D;15950;51.112;6.966;2023-04-19T08:33:42;13.73;48.26
26721;HTU21D;15950;51.112;6.966;2023-04-19T08:36:42;13.80;48.63
26721;HTU21D;15950;51.112;6.966;2023-04-19T08:39:42;13.85;48.79
26721;HTU21D;15950;51.112;6.966;2023-04-19T08:42:42;13.93;48.19
26721;HTU21D;15950;51.112;6.966;2023-04-19T08:45:42;13.79;47.54
26721;HTU21D;15950;51.112;6.966;2023-04-19T08:48:42;13.74;47.76
26721;HTU21D;15950;51.112;6.966;2023-04-19T08:51:42;13.64;47.65
26721;HTU21D;15950;51.112;6.966;2023-04-19T08:54:42;13.58;47.54
26721;HTU21D;15950;51.112;6.966;2023-04-19T08:57:42;13.55;48.18
26721;HTU21D;15950;51.112;6.966;2023-04-19T09:00:42;13.31;47.85
26721;HTU21D;15950;51.112;6.966;2023-04-19T09:03:43;13.32;47.23
26721;HTU21D;15950;51.112;6.966;2023-04-19T09:06:42;13.55;47.58
26721;HTU21D;15950;51.112;6.966;2023-04-19T09:09:42;13.42;47.41
26721;HTU21D;15950;51.112;6.966;2023-04-19T09:12:42;13.68;46.64
26721;HTU21D;15950;51.112;6.966;2023-04-19T09:15:42;13.38;46.25
26721;HTU21D;15950;51.112;6.966;2023-04-19T09:21:42;13.91;46.98
26721;HTU21D;15950;51.112;6.966;2023-04-19T09:24:42;13.98;45.80
26721;HTU21D;15950;51.112;6.966;2023-04-19T09:27:42;13.79;46.05
26721;HTU21D;15950;51.112;6.966;2023-04-19T09:30:42;13.89;45.99
26721;HTU21D;15950;51.112;6.966;2023-04-19T09:33:42;13.66;45.25
26721;HTU21D;15950;51.112;6.966;2023-04-19T09:36:42;14.31;45.78
26721;HTU21D;15950;51.112;6.966;2023-04-19T09:39:42;14.23;44.81
26721;HTU21D;15950;51.112;6.966;2023-04-19T09:42:45;14.02;44.99
26721;HTU21D;15950;51.112;6.966;2023-04-19T09:45:44;14.03;44.80
26721;HTU21D;15950;51.112;6.966;2023-04-19T09:48:42;14.05;45.21
26721;HTU21D;15950;51.112;6.966;2023-04-19T09:51:47;14.09;44.71
26721;HTU21D;15950;51.112;6.966;2023-04-19T09:54:42;13.78;44.17
26721;HTU21D;15950;51.112;6.966;2023-04-19T09:57:42;14.07;44.32
26721;HTU21D;15950;51.112;6.966;2023-04-19T10:00:45;14.19;44.22
26721;HTU21D;15950;51.112;6.966;2023-04-19T10:03:43;14.03;43.79
26721;HTU21D;15950;51.112;6.966;2023-04-19T10:06:42;14.18;43.27
26721;HTU21D;15950;51.112;6.966;2023-04-19T10:09:42;14.06;42.43
26721;HTU21D;15950;51.112;6.966;2023-04-19T10:12:45;14.27;41.54
26721;HTU21D;15950;51.112;6.966;2023-04-19T10:15:41;14.04;41.55
26721;HTU21D;15950;51.112;6.966;2023-04-19T10:18:41;14.00;41.55
26721;HTU21D;15950;51.112;6.966;2023-04-19T10:21:42;13.49;41.48
26721;HTU21D;15950;51.112;6.966;2023-04-19T10:27:43;14.05;40.33
26721;HTU21D;15950;51.112;6.966;2023-04-19T10:30:53;14.21;40.48
26721;HTU21D;15950;51.112;6.966;2023-04-19T10:33:42;13.91;40.10
26721;HTU21D;15950;51.112;6.966;2023-04-19T10:36:43;14.09;40.19
26721;HTU21D;15950;51.112;6.966;2023-04-19T10:39:43;14.02;39.12
26721;HTU21D;15950;51.112;6.966;2023-04-19T10:45:42;14.19;37.43
26721;HTU21D;15950;51.112;6.966;2023-04-19T10:51:48;13.95;36.21
26721;HTU21D;15950;51.112;6.966;2023-04-19T10:54:41;13.87;35.88
26721;HTU21D;15950;51.112;6.966;2023-04-19T11:00:42;14.80;37.08
26721;HTU21D;15950;51.112;6.966;2023-04-19T11:09:44;14.34;35.17
26721;HTU21D;15950;51.112;6.966;2023-04-19T11:12:42;14.28;35.72
26721;HTU21D;15950;51.112;6.966;2023-04-19T11:15:42;13.81;34.33
26721;HTU21D;15950;51.112;6.966;2023-04-19T11:18:43;14.32;34.43
26721;HTU21D;15950;51.112;6.966;2023-04-19T11:21:44;14.14;33.89
26721;HTU21D;15950;51.112;6.966;2023-04-19T11:24:45;14.20;33.88
26721;HTU21D;15950;51.112;6.966;2023-04-19T11:27:43;14.10;34.38
26721;HTU21D;15950;51.112;6.966;2023-04-19T11:30:42;13.83;33.84
26721;HTU21D;15950;51.112;6.966;2023-04-19T11:33:43;14.15;33.96
26721;HTU21D;15950;51.112;6.966;2023-04-19T11:36:50;14.04;33.71
26721;HTU21D;15950;51.112;6.966;2023-04-19T11:39:45;14.26;34.64
26721;HTU21D;15950;51.112;6.966;2023-04-19T11:42:42;14.12;34.55
26721;HTU21D;15950;51.112;6.966;2023-04-19T11:45:41;13.80;33.98
26721;HTU21D;15950;51.112;6.966;2023-04-19T11:51:42;13.97;35.40
26721;HTU21D;15950;51.112;6.966;2023-04-19T11:54:41;13.74;34.87
26721;HTU21D;15950;51.112;6.966;2023-04-19T11:57:41;13.44;34.96
26721;HTU21D;15950;51.112;6.966;2023-04-19T12:00:45;13.80;35.50
26721;HTU21D;15950;51.112;6.966;2023-04-19T12:03:50;13.55;34.96
26721;HTU21D;15950;51.112;6.966;2023-04-19T12:06:41;13.45;35.22
26721;HTU21D;15950;51.112;6.966;2023-04-19T12:09:41;13.35;35.03
26721;HTU21D;15950;51.112;6.966;2023-04-19T12:12:41;13.40;34.92
26721;HTU21D;15950;51.112;6.966;2023-04-19T12:15:42;13.30;34.67
26721;HTU21D;15950;51.112;6.966;2023-04-19T12:18:43;13.48;35.10
26721;HTU21D;15950;51.112;6.966;2023-04-19T12:21:42;13.67;35.52
26721;HTU21D;15950;51.112;6.966;2023-04-19T12:24:42;13.74;35.64
26721;HTU21D;15950;51.112;6.966;2023-04-19T12:27:41;14.06;35.51
26721;HTU21D;15950;51.112;6.966;2023-04-19T12:30:41;13.82;33.97
26721;HTU21D;15950;51.112;6.966;2023-04-19T12:33:41;13.98;33.78
26721;HTU21D;15950;51.112;6.966;2023-04-19T12:36:42;14.03;33.22
26721;HTU21D;15950;51.112;6.966;2023-04-19T12:39:41;14.14;33.20
26721;HTU21D;15950;51.112;6.966;2023-04-19T12:42:41;14.38;34.05
26721;HTU21D;15950;51.112;6.966;2023-04-19T12:45:41;14.26;33.49
26721;HTU21D;15950;51.112;6.966;2023-04-19T12:48:41;14.40;33.38
26721;HTU21D;15950;51.112;6.966;2023-04-19T12:51:41;13.85;32.15
26721;HTU21D;15950;51.112;6.966;2023-04-19T12:54:41;14.23;32.36
26721;HTU21D;15950;51.112;6.966;2023-04-19T12:57:41;14.07;32.80
26721;HTU21D;15950;51.112;6.966;2023-04-19T13:00:41;14.20;32.93
26721;HTU21D;15950;51.112;6.966;2023-04-19T13:03:41;14.07;32.12
26721;HTU21D;15950;51.112;6.966;2023-04-19T13:06:41;14.21;32.78
26721;HTU21D;15950;51.112;6.966;2023-04-19T13:09:41;14.31;32.34
26721;HTU21D;15950;51.112;6.966;2023-04-19T13:12:41;14.12;31.04
26721;HTU21D;15950;51.112;6.966;2023-04-19T13:15:41;14.10;31.26
26721;HTU21D;15950;51.112;6.966;2023-04-19T13:18:41;14.41;32.37
26721;HTU21D;15950;51.112;6.966;2023-04-19T13:21:41;14.49;32.67
26721;HTU21D;15950;51.112;6.966;2023-04-19T13:24:41;14.54;32.15
26721;HTU21D;15950;51.112;6.966;2023-04-19T13:27:41;14.28;30.32
26721;HTU21D;15950;51.112;6.966;2023-04-19T13:30:41;14.37;29.94
26721;HTU21D;15950;51.112;6.966;2023-04-19T13:33:41;14.39;30.11
26721;HTU21D;15950;51.112;6.966;2023-04-19T13:36:41;14.38;31.11
26721;HTU21D;15950;51.112;6.966;2023-04-19T13:39:42;14.22;32.22
26721;HTU21D;15950;51.112;6.966;2023-04-19T13:42:41;14.41;33.50
26721;HTU21D;15950;51.112;6.966;2023-04-19T13:45:41;14.52;33.60
26721;HTU21D;15950;51.112;6.966;2023-04-19T13:48:41;14.21;33.75
26721;HTU21D;15950;51.112;6.966;2023-04-19T13:51:41;14.42;35.11
26721;HTU21D;15950;51.112;6.966;2023-04-19T13:54:41;14.63;34.82
26721;HTU21D;15950;51.112;6.966;2023-04-19T13:57:41;14.49;34.25
26721;HTU21D;15950;51.112;6.966;2023-04-19T14:00:41;14.19;32.60
26721;HTU21D;15950;51.112;6.966;2023-04-19T14:03:41;14.23;31.49
26721;HTU21D;15950;51.112;6.966;2023-04-19T14:06:42;14.05;31.47
26721;HTU21D;15950;51.112;6.966;2023-04-19T14:09:41;14.24;32.02
26721;HTU21D;15950;51.112;6.966;2023-04-19T14:12:41;14.19;32.55
26721;HTU21D;15950;51.112;6.966;2023-04-19T14:15:41;14.51;33.94
26721;HTU21D;15950;51.112;6.966;2023-04-19T14:18:41;14.08;34.18
26721;HTU21D;15950;51.112;6.966;2023-04-19T14:21:41;14.18;33.86
26721;HTU21D;15950;51.112;6.966;2023-04-19T14:24:41;14.39;33.73
26721;HTU21D;15950;51.112;6.966;2023-04-19T14:27:41;14.22;32.90
26721;HTU21D;15950;51.112;6.966;2023-04-19T14:30:41;14.13;32.32
26721;HTU21D;15950;51.112;6.966;2023-04-19T14:33:41;14.27;32.50
26721;HTU21D;15950;51.112;6.966;2023-04-19T14:36:41;14.29;32.25
26721;HTU21D;15950;51.112;6.966;2023-04-19T14:39:43;14.21;31.22
26721;HTU21D;15950;51.112;6.966;2023-04-19T14:42:41;14.34;31.72
26721;HTU21D;15950;51.112;6.966;2023-04-19T14:45:41;14.50;32.67
26721;HTU21D;15950;51.112;6.966;2023-04-19T14:48:41;14.48;32.03
26721;HTU21D;15950;51.112;6.966;2023-04-19T14:51:42;14.48;32.10
26721;HTU21D;15950;51.112;6.966;2023-04-19T14:54:41;14.39;32.07
26721;HTU21D;15950;51.112;6.966;2023-04-19T14:57:41;14.34;31.91
26721;HTU21D;15950;51.112;6.966;2023-04-19T15:00:41;14.45;31.23
26721;HTU21D;15950;51.112;6.966;2023-04-19T15:03:41;14.21;31.47
26721;HTU21D;15950;51.112;6.966;2023-04-19T15:06:41;14.25;31.61
26721;HTU21D;15950;51.112;6.966;2023-04-19T15:09:41;14.37;32.18
26721;HTU21D;15950;51.112;6.966;2023-04-19T15:12:41;14.05;32.35
26721;HTU21D;15950;51.112;6.966;2023-04-19T15:15:41;14.06;32.29
26721;HTU21D;15950;51.112;6.966;2023-04-19T15:18:41;14.39;32.86
26721;HTU21D;15950;51.112;6.966;2023-04-19T15:21:41;14.34;32.21
26721;HTU21D;15950;51.112;6.966;2023-04-19T15:24:41;14.18;30.80
26721;HTU21D;15950;51.112;6.966;2023-04-19T15:27:41;14.15;30.14
26721;HTU21D;15950;51.112;6.966;2023-04-19T15:30:41;14.41;30.46
26721;HTU21D;15950;51.112;6.966;2023-04-19T15:33:41;14.21;30.83
26721;HTU21D;15950;51.112;6.966;2023-04-19T15:36:41;14.32;31.65
26721;HTU21D;15950;51.112;6.966;2023-04-19T15:39:41;14.40;31.38
26721;HTU21D;15950;51.112;6.966;2023-04-19T15:42:41;14.35;31.08
26721;HTU21D;15950;51.112;6.966;2023-04-19T15:45:41;14.35;30.95
26721;HTU21D;15950;51.112;6.966;2023-04-19T15:48:43;14.20;30.17
26721;HTU21D;15950;51.112;6.966;2023-04-19T15:51:41;14.04;29.87
26721;HTU21D;15950;51.112;6.966;2023-04-19T15:54:41;14.00;30.42
26721;HTU21D;15950;51.112;6.966;2023-04-19T15:57:41;14.15;31.17
26721;HTU21D;15950;51.112;6.966;2023-04-19T16:00:41;14.20;31.24
26721;HTU21D;15950;51.112;6.966;2023-04-19T16:03:43;14.00;31.03
26721;HTU21D;15950;51.112;6.966;2023-04-19T16:06:41;13.94;30.91
26721;HTU21D;15950;51.112;6.966;2023-04-19T16:09:41;13.95;31.20
26721;HTU21D;15950;51.112;6.966;2023-04-19T16:12:41;14.33;32.34
26721;HTU21D;15950;51.112;6.966;2023-04-19T16:15:42;14.05;32.40
26721;HTU21D;15950;51.112;6.966;2023-04-19T16:18:41;14.07;32.41
26721;HTU21D;15950;51.112;6.966;2023-04-19T16:21:41;14.03;33.12
26721;HTU21D;15950;51.112;6.966;2023-04-19T16:24:41;14.00;33.55
26721;HTU21D;15950;51.112;6.966;2023-04-19T16:27:43;13.89;33.32
26721;HTU21D;15950;51.112;6.966;2023-04-19T16:30:44;13.76;33.75
26721;HTU21D;15950;51.112;6.966;2023-04-19T16:33:41;13.77;32.73
26721;HTU21D;15950;51.112;6.966;2023-04-19T16:36:41;13.75;33.00
26721;HTU21D;15950;51.112;6.966;2023-04-19T16:39:41;13.82;33.31
26721;HTU21D;15950;51.112;6.966;2023-04-19T16:42:41;13.70;32.83
26721;HTU21D;15950;51.112;6.966;2023-04-19T16:45:44;13.76;32.88
26721;HTU21D;15950;51.112;6.966;2023-04-19T16:48:41;13.79;33.25
26721;HTU21D;15950;51.112;6.966;2023-04-19T16:51:41;13.74;32.88
26721;HTU21D;15950;51.112;6.966;2023-04-19T16:54:42;13.71;33.22
26721;HTU21D;15950;51.112;6.966;2023-04-19T16:57:41;13.64;33.15
26721;HTU21D;15950;51.112;6.966;2023-04-19T17:00:41;13.61;33.03
26721;HTU21D;15950;51.112;6.966;2023-04-19T17:03:41;13.62;33.32
26721;HTU21D;15950;51.112;6.966;2023-04-19T17:06:41;13.61;32.98
26721;HTU21D;15950;51.112;6.966;2023-04-19T17:09:41;13.62;33.14
26721;HTU21D;15950;51.112;6.966;2023-04-19T17:12:41;13.62;33.08
26721;HTU21D;15950;51.112;6.966;2023-04-19T17:15:41;13.61;32.55
26721;HTU21D;15950;51.112;6.966;2023-04-19T17:18:41;13.61;32.76
26721;HTU21D;15950;51.112;6.966;2023-04-19T17:21:41;13.63;33.09
26721;HTU21D;15950;51.112;6.966;2023-04-19T17:24:41;13.55;33.58
26721;HTU21D;15950;51.112;6.966;2023-04-19T17:27:41;13.56;33.30
26721;HTU21D;15950;51.112;6.966;2023-04-19T17:30:41;13.51;32.83
26721;HTU21D;15950;51.112;6.966;2023-04-19T17:33:41;13.42;33.03
26721;HTU21D;15950;51.112;6.966;2023-04-19T17:36:41;13.39;33.69
26721;HTU21D;15950;51.112;6.966;2023-04-19T17:39:41;13.23;33.09
26721;HTU21D;15950;51.112;6.966;2023-04-19T17:42:41;13.18;32.70
26721;HTU21D;15950;51.112;6.966;2023-04-19T17:45:41;13.15;32.33
26721;HTU21D;15950;51.112;6.966;2023-04-19T17:48:41;13.04;31.99
26721;HTU21D;15950;51.112;6.966;2023-04-19T17:51:41;13.05;32.08
26721;HTU21D;15950;51.112;6.966;2023-04-19T17:54:41;12.99;31.83
26721;HTU21D;15950;51.112;6.966;2023-04-19T17:57:42;12.93;31.20
26721;HTU21D;15950;51.112;6.966;2023-04-19T18:00:41;12.83;31.73
26721;HTU21D;15950;51.112;6.966;2023-04-19T18:03:41;12.88;31.55
26721;HTU21D;15950;51.112;6.966;2023-04-19T18:06:41;12.72;31.32
26721;HTU21D;15950;51.112;6.966;2023-04-19T18:09:41;12.81;31.84
26721;HTU21D;15950;51.112;6.966;2023-04-19T18:12:41;12.64;32.54
26721;HTU21D;15950;51.112;6.966;2023-04-19T18:15:41;12.69;33.10
26721;HTU21D;15950;51.112;6.966;2023-04-19T18:18:41;12.48;33.88
26721;HTU21D;15950;51.112;6.966;2023-04-19T18:21:41;12.52;34.21
26721;HTU21D;15950;51.112;6.966;2023-04-19T18:24:41;12.57;34.60
26721;HTU21D;15950;51.112;6.966;2023-04-19T18:27:41;12.41;35.24
26721;HTU21D;15950;51.112;6.966;2023-04-19T18:30:41;12.33;35.67
26721;HTU21D;15950;51.112;6.966;2023-04-19T18:33:41;12.35;35.98
26721;HTU21D;15950;51.112;6.966;2023-04-19T18:36:41;12.20;36.25
26721;HTU21D;15950;51.112;6.966;2023-04-19T18:39:42;12.23;36.72
26721;HTU21D;15950;51.112;6.966;2023-04-19T18:42:41;12.14;36.85
26721;HTU21D;15950;51.112;6.966;2023-04-19T18:45:41;12.12;37.06
26721;HTU21D;15950;51.112;6.966;2023-04-19T18:48:41;12.05;37.33
26721;HTU21D;15950;51.112;6.966;2023-04-19T18:51:41;11.98;37.36
26721;HTU21D;15950;51.112;6.966;2023-04-19T18:54:41;12.07;37.75
26721;HTU21D;15950;51.112;6.966;2023-04-19T18:57:41;11.87;38.00
26721;HTU21D;15950;51.112;6.966;2023-04-19T19:00:41;11.89;38.19